• Join FlightAware (Why Join?)
  • Login
  • US Flag 
09:46PM EDT


 

Airport Tracker/Info


-or-


 

Live Flight TrackerFlight Track Log ✈ UAL5832 ✈ 12-Apr-2013 ✈ KABE - KORD

Flight Track Log - Related Links

Times and Time Zones

All times are in EDT time to prevent confusion due to time zone crossing. See the UAL5832 flight status page for this flight to view local times or setup timezone preferences in your user account.

Time Position Orientation Groundspeed Altitude Reporting Facility
EDT Latitude Longitude Course Direction KTS MPH feet Rate Location/Type
05:30PM 40.7411 -75.5203 264° West 244 281 5,700  Level New York Center
05:31PM 40.7419 -75.6053 271° West 231 266 7,000 1,680 Climbing New York Center
05:32PM 40.7239 -75.6833 253° West 237 273 9,100 1,800 Climbing New York Center
05:33PM 40.7078 -75.7753 257° West 249 287 10,700 1,320 Climbing New York Center
05:34PM 40.6883 -75.8833 257° West 272 313 11,900 960 Climbing New York Center
05:35PM 40.5892 -76.1072 264° West  Level FlightAware Approximate
05:35PM 40.6694 -75.9833 256° West 294 338 12,700  Level New York Center
05:36PM 40.6472 -76.1075 257° West 326 375 13,900 1,080 Climbing New York Center
05:37PM 40.6253 -76.2233 256° West 333 383 14,900 1,140 Climbing New York Center
05:38PM 40.6033 -76.3364 256° West 333 383 16,200 1,320 Climbing New York Center
05:39PM 40.5861 -76.4361 257° West 328 377 17,700 1,560 Climbing New York Center
05:40PM 40.5619 -76.5489 254° West 321 369 19,300 1,560 Climbing New York Center
05:41PM 40.5567 -76.6578 266° West 314 361 20,900 1,260 Climbing New York Center
05:42PM 40.5675 -76.7708 277° West 309 356 21,900 1,020 Climbing New York Center
05:43PM 40.5781 -76.8892 277° West 319 367 23,000 1,020 Climbing New York Center
05:44PM 40.5886 -77.0078 277° West 324 373 24,000 960 Climbing New York Center
05:45PM 40.5989 -77.1289 276° West 336 387 25,000 1,020 Climbing New York Center
05:46PM 40.6108 -77.2531 277° West 336 387 26,100 1,020 Climbing New York Center
05:47PM 40.6231 -77.3719 278° West 336 387 27,100 1,020 Climbing New York Center
05:51PM 40.6619 -77.8458 276° West 332 382 31,100 1,020 Climbing Cleveland Center
05:52PM 40.6772 -77.9631 280° West 327 376 32,200 1,020 Climbing Cleveland Center
05:53PM 40.6944 -78.0828 281° West 334 384 33,200 960 Climbing Cleveland Center
05:54PM 40.7114 -78.1972 281° West 329 379 34,200 960 Climbing Cleveland Center
05:55PM 40.7264 -78.3117 280° West 329 379 35,200 900 Climbing Cleveland Center
05:56PM 40.7408 -78.4236 280° West 324 373 36,000 360 Climbing Cleveland Center
05:57PM 40.7578 -78.5383 281° West 324 373 36,000  Level Cleveland Center
05:58PM 40.7722 -78.6611 279° West 329 379 36,000  Level Cleveland Center
05:59PM 40.7889 -78.7869 280° West 340 391 36,000  Level Cleveland Center
06:00PM 40.8075 -78.9181 281° West 354 407 36,000  Level Cleveland Center
06:01PM 40.8239 -79.0356 280° West 361 415 36,000  Level Cleveland Center
06:02PM 40.8422 -79.1642 281° West 366 421 36,000  Level Cleveland Center
06:03PM 40.8606 -79.2956 280° West 366 421 36,000  Level Cleveland Center
06:04PM 40.8764 -79.4269 279° West 371 427 36,000  Level Cleveland Center
06:05PM 40.8903 -79.5586 278° West 371 427 36,000  Level Cleveland Center
06:06PM 40.9081 -79.6903 280° West 371 427 36,000  Level Cleveland Center
06:07PM 40.9236 -79.8219 279° West 371 427 36,000  Level Cleveland Center
06:08PM 40.9389 -79.9536 279° West 371 427 36,000  Level Cleveland Center
06:09PM 40.9561 -80.0856 280° West 366 421 36,000  Level Cleveland Center
06:10PM 40.9714 -80.2172 279° West 371 427 36,000  Level Cleveland Center
06:11PM 40.9883 -80.3519 280° West 371 427 36,000  Level Cleveland Center
06:12PM 41.0031 -80.4869 278° West 371 427 36,000  Level Cleveland Center
06:13PM 41.0178 -80.6189 278° West 371 427 36,000  Level Cleveland Center
06:14PM 41.0342 -80.7592 279° West 371 427 36,000  Level Cleveland Center
06:15PM 41.0506 -80.8969 279° West 376 433 36,000  Level Cleveland Center
06:16PM 41.0583 -81.0539 274° West 387 445 36,000  Level Cleveland Center
06:17PM 41.0661 -81.1972 274° West 393 452 36,000  Level Cleveland Center
06:18PM 41.0758 -81.3242 276° West 393 452 36,000  Level Cleveland Center
06:19PM 41.0831 -81.4647 274° West 386 444 36,000  Level Cleveland Center
06:20PM 41.0925 -81.6053 275° West 386 444 36,000  Level Cleveland Center
06:21PM 41.0994 -81.7514 274° West 392 451 36,000  Level Cleveland Center
06:22PM 41.1100 -81.9114 275° West 392 451 36,000  Level Cleveland Center
06:23PM 41.1186 -82.0550 275° West 398 458 36,000  Level Cleveland Center
06:24PM 41.1250 -82.2011 273° West 397 457 36,000  Level Cleveland Center
06:25PM 41.1333 -82.3475 274° West 397 457 36,000  Level Cleveland Center
06:26PM 41.1414 -82.4911 274° West 397 457 36,000  Level Cleveland Center
06:27PM 41.1472 -82.6319 273° West 397 457 36,000  Level Cleveland Center
06:28PM 41.1553 -82.7617 275° West 397 457 36,000  Level Cleveland Center
06:29PM 41.1628 -82.9083 274° West 397 457 36,000  Level Cleveland Center
06:30PM 41.1703 -83.0547 274° West 402 463 36,000  Level Cleveland Center
06:31PM 41.1750 -83.2122 272° West 402 463 36,000  Level Cleveland Center
06:32PM 41.1822 -83.3506 274° West 396 456 36,000  Level Cleveland Center
06:33PM 41.1892 -83.4886 274° West 390 449 36,000  Level Cleveland Center
06:34PM 41.1939 -83.6297 273° West 383 441 36,000  Level Cleveland Center
06:35PM 41.2025 -83.7681 275° West 383 441 36,000 -300 Level Cleveland Center
06:36PM 41.2111 -83.9094 275° West 383 441 35,400 -780 Descending Cleveland Center
06:37PM 41.2172 -84.0531 273° West 388 447 34,500 -660 Descending Cleveland Center
06:38PM 41.2219 -84.2058 272° West 371 427 34,000 -240 Descending Chicago Center
06:39PM 41.2267 -84.3439 273° West 374 430 34,000  Level Chicago Center
06:40PM 41.2311 -84.4825 272° West 377 434 34,000  Level Chicago Center
06:41PM 41.2344 -84.6208 272° West 375 432 34,000  Level Chicago Center
06:42PM 41.2383 -84.7575 272° West 373 429 34,000  Level Chicago Center
06:43PM 41.2425 -84.8961 272° West 375 432 34,000  Level Chicago Center
06:44PM 41.2478 -85.0614 272° West 372 428 34,000  Level Chicago Center
06:45PM 41.2528 -85.2000 273° West 374 430 34,000 -420 Level Chicago Center
06:46PM 41.2561 -85.3397 272° West 376 433 33,200 -1,440 Descending Chicago Center
06:48PM 41.2589 -85.4850 272° West 385 443 31,100 -2,340 Descending Chicago Center
06:49PM 41.2633 -85.6292 272° West 390 449 28,400 -2,700 Descending Chicago Center
06:50PM 41.2661 -85.7706 272° West 383 441 25,600 -1,680 Descending Chicago Center
06:51PM 41.2722 -85.9144 273° West 387 445 25,000 -360 Descending Chicago Center
06:52PM 41.2886 -86.0828 277° West 382 440 24,900 -540 Descending Chicago Center
06:53PM 41.3028 -86.2097 278° West 350 403 23,900 -1,020 Descending Chicago Center
06:54PM 41.3172 -86.3306 279° West 333 383 22,900 -960 Descending Chicago Center
06:55PM 41.3308 -86.4536 278° West 335 386 21,900 -960 Descending Chicago Center
06:56PM 41.3503 -86.5703 283° West 325 374 20,900 -1,200 Descending Chicago Center
06:57PM 41.3939 -86.6742 299° West 322 371 19,500 -2,460 Descending Chicago Center
06:58PM 41.4897 -86.7522 329° Northwest 358 412 15,900 -3,300 Descending Chicago Center
06:59PM 41.5839 -86.7858 345° North 353 406 12,700 -1,920 Descending Chicago Center
07:00PM 41.7019 -86.8000 355° North 356 410 11,900 -420 Descending Chicago Center
07:01PM 41.7978 -86.8139 354° North 351 404 11,900 -60 Level Chicago Center
07:02PM 41.8833 -86.8597 338° Northwest 351 404 11,800 -540 Descending Chicago Center
07:03PM 41.9272 -86.9658 299° West 331 381 10,800 -900 Descending Chicago Center
07:04PM 41.9692 -87.0664 299° West 316 364 10,000 -780 Descending Chicago Center
07:05PM 41.9828 -87.1806 279° West 253 291 9,200 -960 Descending Chicago Center
07:06PM 41.9833 -87.2739 270° West 250 288 8,100 -1,020 Descending Chicago Center
07:07PM 41.9836 -87.3656 270° West 248 285 7,100 -660 Descending Chicago Center
07:08PM 41.9833 -87.4333 270° West 206 237 7,000 -180 Descending Chicago TRACON
07:09PM 41.9833 -87.5000 270° West 185 213 6,800 -600 Descending Chicago TRACON
07:10PM 41.9833 -87.5667 270° West 176 203 5,800 -1,020 Descending Chicago TRACON
07:11PM 41.9833 -87.6333 270° West 187 215 4,700 -1,080 Descending Chicago TRACON
07:12PM 41.9833 -87.7000 270° West 168 193 3,700 -1,020 Descending Chicago TRACON
07:13PM 41.9833 -87.7500 270° West 157 181 2,800 -900 Descending Chicago TRACON
07:14PM 41.9833 -87.8000 270° West 125 144 2,000 -780 Descending Chicago TRACON
07:15PM 41.9833 -87.8500 270° West 121 139 1,300 -720 Descending Chicago TRACON
07:17PM 41.9667 -87.9000 270° West  Level FlightAware Approximate